createdAt,value
2023-03-11T00:00:06.885Z,86.0
2023-03-11T00:02:02.981Z,86.0
2023-03-11T00:04:02.721Z,86.0
2023-03-11T00:06:03.813Z,87.0
2023-03-11T00:08:05.335Z,87.0
2023-03-11T00:10:02.853Z,87.0
2023-03-11T00:12:03.910Z,87.0
2023-03-11T00:14:02.795Z,88.0
2023-03-11T00:16:03.078Z,88.0
2023-03-11T00:18:02.909Z,88.0
2023-03-11T00:20:04.706Z,89.0
2023-03-11T00:22:03.816Z,90.0
2023-03-11T00:24:03.916Z,89.0
2023-03-11T00:26:02.959Z,90.0
2023-03-11T00:28:03.240Z,90.0
2023-03-11T00:30:03.929Z,90.0
2023-03-11T00:32:02.704Z,91.0
2023-03-11T00:34:03.463Z,90.0
2023-03-11T00:36:03.398Z,90.0
2023-03-11T00:38:05.937Z,90.0
2023-03-11T00:40:02.934Z,90.0
2023-03-11T00:42:03.458Z,90.0
2023-03-11T00:44:02.929Z,90.0
2023-03-11T00:46:04.495Z,90.0
2023-03-11T00:48:02.716Z,91.0
2023-03-11T00:50:03.296Z,90.0
2023-03-11T00:52:03.939Z,90.0
2023-03-11T00:54:03.423Z,90.0
2023-03-11T00:56:08.422Z,91.0
2023-03-11T00:58:06.038Z,90.0
2023-03-11T01:00:03.759Z,91.0
2023-03-11T01:02:02.928Z,91.0
2023-03-11T01:04:02.933Z,91.0
2023-03-11T01:06:03.842Z,91.0
2023-03-11T01:08:04.616Z,91.0
2023-03-11T01:10:03.145Z,92.0
2023-03-11T01:12:03.456Z,92.0
2023-03-11T01:14:03.946Z,92.0
2023-03-11T01:16:03.493Z,92.0
2023-03-11T01:18:04.609Z,92.0
2023-03-11T01:20:06.000Z,92.0
2023-03-11T01:22:03.431Z,92.0
2023-03-11T01:24:03.619Z,92.0
2023-03-11T01:26:02.932Z,92.0
2023-03-11T01:28:03.383Z,92.0
2023-03-11T01:30:03.768Z,92.0
2023-03-11T01:32:02.686Z,92.0
2023-03-11T01:34:03.022Z,91.0
2023-03-11T01:36:03.894Z,92.0
2023-03-11T01:38:03.428Z,92.0
2023-03-11T01:40:02.807Z,92.0
2023-03-11T01:42:03.455Z,93.0
2023-03-11T01:44:04.534Z,93.0
2023-03-11T01:46:12.762Z,93.0
2023-03-11T01:48:03.710Z,93.0
2023-03-11T01:50:06.970Z,93.0
2023-03-11T01:52:07.448Z,93.0
2023-03-11T01:54:06.924Z,94.0
2023-03-11T01:56:04.420Z,94.0
2023-03-11T01:58:08.027Z,94.0
2023-03-11T02:00:09.093Z,94.0
2023-03-11T02:02:09.952Z,94.0
2023-03-11T02:04:04.056Z,94.0
2023-03-11T02:06:06.069Z,94.0
2023-03-11T02:08:03.532Z,94.0
2023-03-11T02:10:04.462Z,94.0
2023-03-11T02:12:04.085Z,94.0
2023-03-11T02:14:07.254Z,94.0
2023-03-11T02:16:04.139Z,94.0
2023-03-11T02:18:05.555Z,94.0
2023-03-11T02:20:15.128Z,94.0
2023-03-11T02:22:04.175Z,94.0
2023-03-11T02:24:12.342Z,94.0
2023-03-11T02:26:10.043Z,94.0
2023-03-11T02:28:05.529Z,95.0
2023-03-11T02:30:04.760Z,95.0
2023-03-11T02:32:07.069Z,95.0
2023-03-11T02:34:06.146Z,95.0
2023-03-11T02:36:03.977Z,95.0
2023-03-11T02:38:03.833Z,95.0
2023-03-11T02:40:21.775Z,95.0
2023-03-11T02:42:09.424Z,95.0
2023-03-11T02:44:04.912Z,95.0
2023-03-11T02:46:04.872Z,95.0
2023-03-11T02:48:04.567Z,95.0
2023-03-11T02:50:03.470Z,95.0
2023-03-11T02:52:04.291Z,96.0
2023-03-11T02:54:05.562Z,95.0
2023-03-11T02:56:02.807Z,95.0
2023-03-11T02:58:02.912Z,95.0
2023-03-11T03:00:13.006Z,95.0
2023-03-11T03:02:03.252Z,95.0
2023-03-11T03:04:02.820Z,95.0
2023-03-11T03:06:03.636Z,95.0
2023-03-11T03:08:02.879Z,95.0
2023-03-11T03:10:03.332Z,95.0
2023-03-11T03:12:04.338Z,95.0
2023-03-11T03:14:03.054Z,95.0
2023-03-11T03:16:03.315Z,95.0
2023-03-11T03:18:03.006Z,95.0
2023-03-11T03:20:07.032Z,95.0
2023-03-11T03:22:03.484Z,95.0
2023-03-11T03:24:03.400Z,95.0
2023-03-11T03:26:04.132Z,95.0
2023-03-11T03:28:03.644Z,95.0
2023-03-11T03:30:04.230Z,95.0
2023-03-11T03:32:02.806Z,95.0
2023-03-11T03:34:02.882Z,95.0
2023-03-11T03:36:06.106Z,95.0
2023-03-11T03:38:03.567Z,95.0
2023-03-11T03:40:07.474Z,95.0
2023-03-11T03:42:03.424Z,95.0
2023-03-11T03:44:02.830Z,96.0
2023-03-11T03:46:05.074Z,96.0
2023-03-11T03:48:03.548Z,96.0
2023-03-11T03:50:04.264Z,96.0
2023-03-11T03:52:05.163Z,96.0
2023-03-11T03:54:03.315Z,96.0
2023-03-11T03:56:04.339Z,96.0
2023-03-11T03:58:02.885Z,96.0
2023-03-11T04:00:04.208Z,96.0
2023-03-11T04:02:02.873Z,96.0
2023-03-11T04:04:02.919Z,96.0
2023-03-11T04:06:15.693Z,96.0
2023-03-11T04:08:02.740Z,96.0
2023-03-11T04:10:03.237Z,96.0
2023-03-11T04:12:02.750Z,96.0
2023-03-11T04:14:02.811Z,96.0
2023-03-11T04:16:04.034Z,96.0
2023-03-11T04:18:02.654Z,96.0
2023-03-11T04:20:03.817Z,96.0
2023-03-11T04:22:02.951Z,96.0
2023-03-11T04:24:03.552Z,96.0
2023-03-11T04:26:04.040Z,96.0
2023-03-11T04:28:02.968Z,96.0
2023-03-11T04:30:02.669Z,96.0
2023-03-11T04:32:02.830Z,96.0
2023-03-11T04:34:03.230Z,96.0
2023-03-11T04:36:06.549Z,96.0
2023-03-11T04:38:03.139Z,96.0
2023-03-11T04:40:03.769Z,96.0
2023-03-11T04:42:04.091Z,96.0
2023-03-11T04:44:03.268Z,96.0
2023-03-11T04:46:02.958Z,96.0
2023-03-11T04:48:02.684Z,96.0
2023-03-11T04:50:03.119Z,96.0
2023-03-11T04:52:03.369Z,96.0
2023-03-11T04:54:02.737Z,97.0
2023-03-11T04:56:03.420Z,97.0
2023-03-11T04:58:02.960Z,97.0
2023-03-11T05:00:05.157Z,97.0
2023-03-11T05:02:02.834Z,97.0
2023-03-11T05:04:03.144Z,97.0
2023-03-11T05:06:02.714Z,97.0
2023-03-11T05:08:03.395Z,97.0
2023-03-11T05:10:05.549Z,97.0
2023-03-11T05:12:03.898Z,97.0
2023-03-11T05:14:03.526Z,97.0
2023-03-11T05:16:02.812Z,97.0
2023-03-11T05:18:02.746Z,97.0
2023-03-11T05:20:05.930Z,97.0
2023-03-11T05:22:04.174Z,97.0
2023-03-11T05:24:02.652Z,97.0
2023-03-11T05:26:02.987Z,97.0
2023-03-11T05:28:02.855Z,97.0
2023-03-11T05:30:02.692Z,97.0
2023-03-11T05:32:03.589Z,97.0
2023-03-11T05:34:03.704Z,97.0
2023-03-11T05:36:08.189Z,97.0
2023-03-11T05:38:02.902Z,97.0
2023-03-11T05:40:06.229Z,97.0
2023-03-11T05:42:02.711Z,97.0
2023-03-11T05:44:02.845Z,97.0
2023-03-11T05:46:03.128Z,97.0
2023-03-11T05:48:02.688Z,97.0
2023-03-11T05:50:04.462Z,97.0
2023-03-11T05:52:02.699Z,97.0
2023-03-11T05:54:02.784Z,97.0
2023-03-11T05:56:04.801Z,97.0
2023-03-11T05:58:03.365Z,97.0
2023-03-11T06:00:05.561Z,97.0
2023-03-11T06:02:03.599Z,97.0
2023-03-11T06:04:03.137Z,97.0
2023-03-11T06:06:05.104Z,97.0
2023-03-11T06:08:02.913Z,97.0
2023-03-11T06:10:03.169Z,97.0
2023-03-11T06:12:02.670Z,97.0
2023-03-11T06:14:03.432Z,97.0
2023-03-11T06:16:03.626Z,97.0
2023-03-11T06:18:03.694Z,97.0
2023-03-11T06:20:05.029Z,97.0
2023-03-11T06:22:02.952Z,97.0
2023-03-11T06:24:03.563Z,97.0
2023-03-11T06:26:05.775Z,97.0
2023-03-11T06:28:02.782Z,97.0
2023-03-11T06:30:02.745Z,97.0
2023-03-11T06:32:03.596Z,97.0
2023-03-11T06:34:03.733Z,97.0
2023-03-11T06:36:05.298Z,97.0
2023-03-11T06:38:03.507Z,97.0
2023-03-11T06:40:04.577Z,97.0
2023-03-11T06:42:03.436Z,97.0
2023-03-11T06:44:03.915Z,97.0
2023-03-11T06:46:09.272Z,97.0
2023-03-11T06:48:02.656Z,97.0
2023-03-11T06:50:06.294Z,97.0
2023-03-11T06:52:02.709Z,97.0
2023-03-11T06:54:02.955Z,97.0
2023-03-11T06:56:06.962Z,97.0
2023-03-11T06:58:02.885Z,97.0
2023-03-11T07:00:06.121Z,97.0
2023-03-11T07:02:04.369Z,97.0
2023-03-11T07:04:03.482Z,97.0
2023-03-11T07:06:06.259Z,97.0
2023-03-11T07:08:02.889Z,97.0
2023-03-11T07:10:02.664Z,97.0
2023-03-11T07:12:02.701Z,97.0
2023-03-11T07:14:02.834Z,97.0
2023-03-11T07:16:06.937Z,97.0
2023-03-11T07:18:02.702Z,97.0
2023-03-11T07:20:03.727Z,97.0
2023-03-11T07:22:02.693Z,97.0
2023-03-11T07:24:04.465Z,97.0
2023-03-11T07:26:04.526Z,97.0
2023-03-11T07:28:03.498Z,97.0
2023-03-11T07:30:04.284Z,97.0
2023-03-11T07:32:02.957Z,97.0
2023-03-11T07:34:05.456Z,97.0
2023-03-11T07:36:05.735Z,97.0
2023-03-11T07:38:02.864Z,97.0
2023-03-11T07:40:02.913Z,97.0
2023-03-11T07:42:04.268Z,97.0
2023-03-11T07:44:04.211Z,97.0
2023-03-11T07:46:06.266Z,97.0
2023-03-11T07:48:02.726Z,97.0
2023-03-11T07:50:03.109Z,97.0
2023-03-11T07:52:03.913Z,97.0
2023-03-11T07:54:04.141Z,97.0
2023-03-11T07:56:04.943Z,97.0
2023-03-11T07:58:02.726Z,97.0
2023-03-11T08:00:03.830Z,97.0
2023-03-11T08:02:04.559Z,97.0
2023-03-11T08:04:05.312Z,97.0
2023-03-11T08:06:03.263Z,97.0
2023-03-11T08:08:03.322Z,97.0
2023-03-11T08:10:03.969Z,97.0
2023-03-11T08:12:03.480Z,97.0
2023-03-11T08:14:03.041Z,97.0
2023-03-11T08:16:05.282Z,97.0
2023-03-11T08:18:02.680Z,97.0
2023-03-11T08:20:07.509Z,97.0
2023-03-11T08:22:03.875Z,97.0
2023-03-11T08:24:05.529Z,97.0
2023-03-11T08:26:04.426Z,97.0
2023-03-11T08:28:02.765Z,97.0
2023-03-11T08:30:02.864Z,97.0
2023-03-11T08:32:03.829Z,97.0
2023-03-11T08:34:05.624Z,97.0
2023-03-11T08:36:03.414Z,97.0
2023-03-11T08:38:02.807Z,97.0
2023-03-11T08:40:02.793Z,97.0
2023-03-11T08:42:03.637Z,97.0
2023-03-11T08:44:03.003Z,97.0
2023-03-11T08:46:06.280Z,97.0
2023-03-11T08:48:02.854Z,97.0
2023-03-11T08:50:03.287Z,97.0
2023-03-11T08:52:03.749Z,97.0
2023-03-11T08:54:04.088Z,97.0
2023-03-11T08:56:02.887Z,97.0
2023-03-11T08:58:03.633Z,97.0
2023-03-11T09:00:03.011Z,97.0
2023-03-11T09:02:03.338Z,97.0
2023-03-11T09:04:02.778Z,97.0
2023-03-11T09:06:05.113Z,97.0
2023-03-11T09:08:05.651Z,97.0
2023-03-11T09:10:04.304Z,97.0
2023-03-11T09:12:02.661Z,97.0
2023-03-11T09:14:02.732Z,97.0
2023-03-11T09:16:05.386Z,97.0
2023-03-11T09:18:03.068Z,97.0
2023-03-11T09:20:04.528Z,97.0
2023-03-11T09:22:03.629Z,97.0
2023-03-11T09:24:05.695Z,97.0
2023-03-11T09:26:03.544Z,97.0
2023-03-11T09:28:02.670Z,97.0
2023-03-11T09:30:02.774Z,97.0
2023-03-11T09:32:03.086Z,97.0
2023-03-11T09:34:03.236Z,97.0
2023-03-11T09:36:02.943Z,97.0
2023-03-11T09:38:02.749Z,97.0
2023-03-11T09:40:02.954Z,97.0
2023-03-11T09:42:11.338Z,97.0
2023-03-11T09:44:12.424Z,97.0
2023-03-11T09:46:15.969Z,97.0
2023-03-11T09:48:20.104Z,97.0
2023-03-11T09:50:16.228Z,97.0
2023-03-11T09:52:09.707Z,97.0
2023-03-11T09:54:05.832Z,97.0
2023-03-11T09:56:07.296Z,97.0
2023-03-11T09:58:09.693Z,97.0
2023-03-11T10:00:12.541Z,97.0
2023-03-11T10:02:03.686Z,97.0
2023-03-11T10:04:09.470Z,97.0
2023-03-11T10:06:15.815Z,97.0
2023-03-11T10:08:12.306Z,97.0
2023-03-11T10:10:03.801Z,97.0
2023-03-11T10:12:14.856Z,97.0
2023-03-11T10:14:11.283Z,97.0
2023-03-11T10:16:13.269Z,97.0
2023-03-11T10:18:20.326Z,97.0
2023-03-11T10:20:09.340Z,97.0
2023-03-11T10:22:13.408Z,97.0
2023-03-11T10:24:17.815Z,97.0
2023-03-11T10:26:13.054Z,97.0
2023-03-11T10:28:08.189Z,97.0
2023-03-11T10:30:10.134Z,97.0
2023-03-11T10:32:12.752Z,97.0
2023-03-11T10:34:10.921Z,97.0
2023-03-11T10:36:06.662Z,97.0
2023-03-11T10:38:11.953Z,97.0
2023-03-11T10:40:15.501Z,97.0
2023-03-11T10:42:06.235Z,97.0
2023-03-11T10:44:06.590Z,97.0
2023-03-11T10:46:07.849Z,97.0
2023-03-11T10:48:02.686Z,97.0
2023-03-11T10:50:02.828Z,97.0
2023-03-11T10:52:04.281Z,97.0
2023-03-11T10:54:04.265Z,97.0
2023-03-11T10:56:02.912Z,97.0
2023-03-11T10:58:11.928Z,97.0
2023-03-11T11:00:09.200Z,97.0
2023-03-11T11:02:21.748Z,97.0
2023-03-11T11:04:03.637Z,97.0
2023-03-11T11:06:06.611Z,97.0
2023-03-11T11:08:06.120Z,97.0
2023-03-11T11:10:15.323Z,97.0
2023-03-11T11:12:05.990Z,97.0
2023-03-11T11:14:02.733Z,97.0
2023-03-11T11:16:05.404Z,97.0
2023-03-11T11:18:06.589Z,97.0
2023-03-11T11:20:12.733Z,96.0
2023-03-11T11:22:06.175Z,96.0
2023-03-11T11:24:09.924Z,96.0
2023-03-11T11:26:06.018Z,96.0
2023-03-11T11:28:14.171Z,96.0
2023-03-11T11:30:15.774Z,96.0
2023-03-11T11:32:20.850Z,96.0
2023-03-11T11:34:02.888Z,96.0
2023-03-11T11:36:05.733Z,96.0
2023-03-11T11:38:04.060Z,96.0
2023-03-11T11:40:11.373Z,96.0
2023-03-11T11:42:03.755Z,96.0
2023-03-11T11:44:05.746Z,96.0
2023-03-11T11:46:07.390Z,97.0
2023-03-11T11:48:10.715Z,96.0
2023-03-11T11:50:05.499Z,96.0
2023-03-11T11:52:09.436Z,96.0
2023-03-11T11:54:14.940Z,96.0
2023-03-11T11:56:02.892Z,96.0
2023-03-11T11:58:05.102Z,96.0
2023-03-11T12:00:09.093Z,97.0
2023-03-11T12:02:17.883Z,97.0
2023-03-11T12:04:20.432Z,97.0
2023-03-11T12:06:10.758Z,97.0
2023-03-11T12:08:12.925Z,97.0
2023-03-11T12:10:23.174Z,97.0
2023-03-11T12:12:15.880Z,97.0
2023-03-11T12:14:09.835Z,96.0
2023-03-11T12:16:11.195Z,97.0
2023-03-11T12:18:09.551Z,97.0
2023-03-11T12:20:10.863Z,97.0
2023-03-11T12:22:21.703Z,97.0
2023-03-11T12:24:18.187Z,97.0
2023-03-11T12:26:15.796Z,97.0
2023-03-11T12:28:16.840Z,97.0
2023-03-11T12:30:12.057Z,97.0
2023-03-11T12:32:03.725Z,97.0
2023-03-11T12:34:07.213Z,97.0
2023-03-11T12:36:05.566Z,97.0
2023-03-11T12:38:08.081Z,97.0
2023-03-11T12:40:21.710Z,97.0
2023-03-11T12:42:16.163Z,97.0
2023-03-11T12:44:06.064Z,97.0
2023-03-11T12:46:04.735Z,97.0
2023-03-11T12:48:21.872Z,97.0
2023-03-11T12:50:21.705Z,97.0
2023-03-11T12:52:06.152Z,97.0
2023-03-11T12:54:21.702Z,97.0
2023-03-11T12:56:10.595Z,97.0
2023-03-11T12:58:23.839Z,97.0
2023-03-11T13:00:17.731Z,97.0
2023-03-11T13:02:21.178Z,97.0
2023-03-11T13:04:20.422Z,97.0
2023-03-11T13:06:19.540Z,97.0
2023-03-11T13:08:09.727Z,97.0
2023-03-11T13:10:13.255Z,97.0
2023-03-11T13:12:02.730Z,97.0
2023-03-11T13:14:20.645Z,97.0
2023-03-11T13:16:21.822Z,97.0
2023-03-11T13:18:13.528Z,97.0
2023-03-11T13:20:03.901Z,97.0
2023-03-11T13:22:04.691Z,97.0
2023-03-11T13:24:22.150Z,97.0
2023-03-11T13:26:21.764Z,97.0
2023-03-11T13:28:21.761Z,97.0
2023-03-11T13:30:10.019Z,97.0
2023-03-11T13:32:21.020Z,97.0
2023-03-11T13:34:13.119Z,97.0
2023-03-11T13:36:14.891Z,97.0
2023-03-11T13:38:18.378Z,97.0
2023-03-11T13:40:15.624Z,97.0
2023-03-11T13:42:05.255Z,97.0
2023-03-11T13:44:14.194Z,97.0
2023-03-11T13:46:11.964Z,97.0
2023-03-11T13:48:07.351Z,97.0
2023-03-11T13:50:09.812Z,97.0
2023-03-11T13:52:07.164Z,97.0
2023-03-11T13:54:06.078Z,97.0
2023-03-11T13:56:04.420Z,97.0
2023-03-11T13:58:16.338Z,97.0
2023-03-11T14:00:16.576Z,97.0
2023-03-11T14:02:17.040Z,97.0
2023-03-11T14:04:02.880Z,97.0
2023-03-11T14:06:06.785Z,97.0
2023-03-11T14:08:13.738Z,97.0
2023-03-11T14:10:17.267Z,97.0
2023-03-11T14:12:07.308Z,97.0
2023-03-11T14:14:12.746Z,97.0
2023-03-11T14:16:06.002Z,97.0
2023-03-11T14:18:21.955Z,97.0
2023-03-11T14:20:06.708Z,97.0
2023-03-11T14:22:07.787Z,97.0
2023-03-11T14:24:04.107Z,97.0
2023-03-11T14:26:08.343Z,97.0
2023-03-11T14:28:05.292Z,98.0
2023-03-11T14:30:03.264Z,98.0
2023-03-11T14:32:17.777Z,98.0
2023-03-11T14:34:06.837Z,98.0
2023-03-11T14:36:11.058Z,98.0
2023-03-11T14:38:12.711Z,98.0
2023-03-11T14:40:03.806Z,98.0
2023-03-11T14:42:09.028Z,98.0
2023-03-11T14:44:04.185Z,98.0
2023-03-11T14:46:03.833Z,98.0
2023-03-11T14:48:09.013Z,98.0
2023-03-11T14:50:04.721Z,98.0
2023-03-11T14:52:09.239Z,98.0
2023-03-11T14:54:07.385Z,98.0
2023-03-11T14:56:06.918Z,98.0
2023-03-11T14:58:06.273Z,98.0
2023-03-11T15:00:07.483Z,98.0
2023-03-11T15:02:17.482Z,98.0
2023-03-11T15:04:09.015Z,98.0
2023-03-11T15:06:07.129Z,98.0
2023-03-11T15:08:07.166Z,98.0
2023-03-11T15:10:06.838Z,98.0
2023-03-11T15:12:05.383Z,98.0
2023-03-11T15:14:17.701Z,98.0
2023-03-11T15:16:06.139Z,98.0
2023-03-11T15:18:04.136Z,98.0
2023-03-11T15:20:04.428Z,98.0
2023-03-11T15:22:15.378Z,98.0
2023-03-11T15:24:06.265Z,98.0
2023-03-11T15:26:04.094Z,98.0
2023-03-11T15:28:21.658Z,98.0
2023-03-11T15:30:15.881Z,98.0
2023-03-11T15:32:21.963Z,98.0
2023-03-11T15:34:20.880Z,98.0
2023-03-11T15:36:02.704Z,98.0
2023-03-11T15:38:13.673Z,98.0
2023-03-11T15:40:18.154Z,98.0
2023-03-11T15:42:13.152Z,98.0
2023-03-11T15:44:07.015Z,98.0
2023-03-11T15:46:03.965Z,98.0
2023-03-11T15:48:02.683Z,98.0
2023-03-11T15:50:23.483Z,98.0
2023-03-11T15:52:03.068Z,98.0
2023-03-11T15:54:02.870Z,98.0
2023-03-11T15:56:12.137Z,98.0
2023-03-11T15:58:08.778Z,98.0
2023-03-11T16:00:04.399Z,98.0
2023-03-11T16:02:03.694Z,98.0
2023-03-11T16:04:02.827Z,98.0
2023-03-11T16:06:02.864Z,98.0
2023-03-11T16:08:03.626Z,98.0
2023-03-11T16:10:04.361Z,98.0
2023-03-11T16:12:09.371Z,98.0
2023-03-11T16:14:03.490Z,98.0
2023-03-11T16:16:04.664Z,98.0
2023-03-11T16:18:05.633Z,98.0
2023-03-11T16:20:02.848Z,98.0
2023-03-11T16:22:04.488Z,98.0
2023-03-11T16:24:04.410Z,98.0
2023-03-11T16:26:05.730Z,97.0
2023-03-11T16:28:03.948Z,97.0
2023-03-11T16:30:03.929Z,97.0
2023-03-11T16:32:02.733Z,97.0
2023-03-11T16:34:02.737Z,97.0
2023-03-11T16:36:03.624Z,98.0
2023-03-11T16:38:03.069Z,98.0
2023-03-11T16:40:03.874Z,97.0
2023-03-11T16:42:02.925Z,97.0
2023-03-11T16:44:02.691Z,97.0
2023-03-11T16:46:03.308Z,97.0
2023-03-11T16:48:05.144Z,97.0
2023-03-11T16:50:03.922Z,97.0
2023-03-11T16:52:03.118Z,97.0
2023-03-11T16:54:03.654Z,97.0
2023-03-11T16:56:04.709Z,97.0
2023-03-11T16:58:02.676Z,97.0
2023-03-11T17:00:05.092Z,97.0
2023-03-11T17:02:03.522Z,97.0
2023-03-11T17:04:02.643Z,97.0
2023-03-11T17:06:04.606Z,97.0
2023-03-11T17:08:04.008Z,97.0
2023-03-11T17:10:03.182Z,97.0
2023-03-11T17:12:03.963Z,97.0
2023-03-11T17:14:15.839Z,97.0
2023-03-11T17:16:03.293Z,97.0
2023-03-11T17:18:03.695Z,97.0
2023-03-11T17:20:03.214Z,97.0
2023-03-11T17:22:03.762Z,97.0
2023-03-11T17:24:02.732Z,97.0
2023-03-11T17:26:07.195Z,97.0
2023-03-11T17:28:02.689Z,97.0
2023-03-11T17:30:05.989Z,97.0
2023-03-11T17:32:05.854Z,97.0
2023-03-11T17:34:02.990Z,97.0
2023-03-11T17:36:05.091Z,97.0
2023-03-11T17:38:03.840Z,96.0
2023-03-11T17:40:03.946Z,95.0
2023-03-11T17:42:02.894Z,94.0
2023-03-11T17:44:02.733Z,94.0
2023-03-11T17:46:07.696Z,95.0
2023-03-11T17:48:02.681Z,94.0
2023-03-11T17:50:03.269Z,93.0
2023-03-11T17:52:03.588Z,93.0
2023-03-11T17:54:04.661Z,94.0
2023-03-11T17:56:04.030Z,94.0
2023-03-11T17:58:02.680Z,94.0
2023-03-11T18:00:05.457Z,93.0
2023-03-11T18:02:03.325Z,93.0
2023-03-11T18:04:04.131Z,93.0
2023-03-11T18:06:05.327Z,92.0
2023-03-11T18:08:02.766Z,92.0
2023-03-11T18:10:02.680Z,93.0
2023-03-11T18:12:03.067Z,93.0
2023-03-11T18:14:03.150Z,94.0
2023-03-11T18:16:06.241Z,93.0
2023-03-11T18:18:03.268Z,93.0
2023-03-11T18:20:05.188Z,90.0
2023-03-11T18:22:03.410Z,90.0
2023-03-11T18:24:02.765Z,91.0
2023-03-11T18:26:06.097Z,90.0
2023-03-11T18:28:03.556Z,89.0
2023-03-11T18:30:02.959Z,89.0
2023-03-11T18:32:03.458Z,89.0
2023-03-11T18:34:04.901Z,87.0
2023-03-11T18:36:11.462Z,88.0
2023-03-11T18:38:02.919Z,88.0
2023-03-11T18:40:05.445Z,86.0
2023-03-11T18:42:04.123Z,86.0
2023-03-11T18:44:03.129Z,87.0
2023-03-11T18:46:08.473Z,88.0
2023-03-11T18:48:03.258Z,86.0
2023-03-11T18:50:03.128Z,88.0
2023-03-11T18:52:03.507Z,85.0
2023-03-11T18:54:03.702Z,86.0
2023-03-11T18:56:06.108Z,83.0
2023-03-11T18:58:02.685Z,84.0
2023-03-11T19:00:03.889Z,82.0
2023-03-11T19:02:02.922Z,85.0
2023-03-11T19:04:02.868Z,84.0
2023-03-11T19:06:03.203Z,82.0
2023-03-11T19:08:03.258Z,84.0
2023-03-11T19:10:02.758Z,81.0
2023-03-11T19:12:03.398Z,83.0
2023-03-11T19:14:03.091Z,80.0
2023-03-11T19:16:04.412Z,81.0
2023-03-11T19:18:06.886Z,83.0
2023-03-11T19:20:03.641Z,84.0
2023-03-11T19:22:02.813Z,80.0
2023-03-11T19:24:03.508Z,82.0
2023-03-11T19:26:03.750Z,81.0
2023-03-11T19:28:02.845Z,83.0
2023-03-11T19:30:03.370Z,82.0
2023-03-11T19:32:03.542Z,78.0
2023-03-11T19:34:02.700Z,82.0
2023-03-11T19:36:05.535Z,81.0
2023-03-11T19:38:03.811Z,79.0
2023-03-11T19:40:03.039Z,78.0
2023-03-11T19:42:03.040Z,77.0
2023-03-11T19:44:03.750Z,77.0
2023-03-11T19:46:03.270Z,78.0
2023-03-11T19:48:03.510Z,78.0
2023-03-11T19:50:03.696Z,74.0
2023-03-11T19:52:09.221Z,76.0
2023-03-11T19:54:02.873Z,79.0
2023-03-11T19:56:04.427Z,80.0
2023-03-11T19:58:02.672Z,77.0
2023-03-11T20:00:03.585Z,79.0
2023-03-11T20:02:03.984Z,77.0
2023-03-11T20:04:02.830Z,76.0
2023-03-11T20:06:06.198Z,78.0
2023-03-11T20:08:03.462Z,72.0
2023-03-11T20:10:03.748Z,74.0
2023-03-11T20:12:02.895Z,74.0
2023-03-11T20:14:03.134Z,76.0
2023-03-11T20:16:08.489Z,78.0
2023-03-11T20:18:05.172Z,76.0
2023-03-11T20:20:03.430Z,73.0
2023-03-11T20:22:02.825Z,72.0
2023-03-11T20:24:03.532Z,77.0
2023-03-11T20:26:06.606Z,72.0
2023-03-11T20:28:02.757Z,69.0
2023-03-11T20:30:02.983Z,69.0
2023-03-11T20:32:04.218Z,69.0
2023-03-11T20:34:03.840Z,72.0
2023-03-11T20:36:04.827Z,78.0
2023-03-11T20:38:03.570Z,77.0
2023-03-11T20:40:03.224Z,75.0
2023-03-11T20:42:02.859Z,75.0
2023-03-11T20:44:02.892Z,77.0
2023-03-11T20:46:03.700Z,77.0
2023-03-11T20:48:02.908Z,78.0
2023-03-11T20:50:02.985Z,75.0
2023-03-11T20:52:03.264Z,77.0
2023-03-11T20:54:03.047Z,74.0
2023-03-11T20:56:07.448Z,75.0
2023-03-11T20:58:02.800Z,75.0
2023-03-11T21:00:06.093Z,75.0
2023-03-11T21:02:03.373Z,75.0
2023-03-11T21:04:04.137Z,76.0
2023-03-11T21:06:02.972Z,75.0
2023-03-11T21:08:03.826Z,73.0
2023-03-11T21:10:04.633Z,75.0
2023-03-11T21:12:03.567Z,77.0
2023-03-11T21:14:03.924Z,76.0
2023-03-11T21:16:02.858Z,78.0
2023-03-11T21:18:03.618Z,79.0
2023-03-11T21:20:05.347Z,80.0
2023-03-11T21:22:03.877Z,78.0
2023-03-11T21:24:04.147Z,80.0
2023-03-11T21:26:05.398Z,78.0
2023-03-11T21:28:02.678Z,75.0
2023-03-11T21:30:04.259Z,77.0
2023-03-11T21:32:03.291Z,81.0
2023-03-11T21:34:03.500Z,74.0
2023-03-11T21:36:03.421Z,68.0
2023-03-11T21:38:02.825Z,74.0
2023-03-11T21:40:03.683Z,74.0
2023-03-11T21:42:03.127Z,70.0
2023-03-11T21:44:02.789Z,77.0
2023-03-11T21:46:03.937Z,78.0
2023-03-11T21:48:06.225Z,72.0
2023-03-11T21:50:02.854Z,76.0
2023-03-11T21:52:02.793Z,77.0
2023-03-11T21:54:04.985Z,75.0
2023-03-11T21:56:04.711Z,70.0
2023-03-11T21:58:03.454Z,69.0
2023-03-11T22:00:05.586Z,69.0
2023-03-11T22:02:03.305Z,65.0
2023-03-11T22:04:03.466Z,67.0
2023-03-11T22:06:06.487Z,67.0
2023-03-11T22:08:03.962Z,66.0
2023-03-11T22:10:02.737Z,68.0
2023-03-11T22:12:04.244Z,72.0
2023-03-11T22:14:02.827Z,71.0
2023-03-11T22:16:04.700Z,66.0
2023-03-11T22:18:03.158Z,67.0
2023-03-11T22:20:05.377Z,68.0
2023-03-11T22:22:03.298Z,70.0
2023-03-11T22:24:02.893Z,69.0
2023-03-11T22:26:03.534Z,69.0
2023-03-11T22:28:02.773Z,64.0
2023-03-11T22:30:03.865Z,64.0
2023-03-11T22:32:02.752Z,66.0
2023-03-11T22:34:02.672Z,65.0
2023-03-11T22:36:04.375Z,64.0
2023-03-11T22:38:03.784Z,64.0
2023-03-11T22:40:03.859Z,65.0
2023-03-11T22:42:03.669Z,67.0
2023-03-11T22:44:02.747Z,67.0
2023-03-11T22:46:05.722Z,71.0
2023-03-11T22:48:03.634Z,73.0
2023-03-11T22:50:02.821Z,70.0
2023-03-11T22:52:02.822Z,68.0
2023-03-11T22:54:03.770Z,68.0
2023-03-11T22:56:08.547Z,67.0
2023-03-11T22:58:02.743Z,66.0
2023-03-11T23:00:05.912Z,65.0
2023-03-11T23:02:04.003Z,64.0
2023-03-11T23:04:02.748Z,67.0
2023-03-11T23:06:05.891Z,69.0
2023-03-11T23:08:02.870Z,67.0
2023-03-11T23:10:03.177Z,68.0
2023-03-11T23:12:04.308Z,62.0
2023-03-11T23:14:02.736Z,63.0
2023-03-11T23:16:04.976Z,60.0
2023-03-11T23:18:03.174Z,62.0
2023-03-11T23:20:05.123Z,62.0
2023-03-11T23:22:02.718Z,60.0
2023-03-11T23:24:05.618Z,62.0
2023-03-11T23:26:08.679Z,64.0
2023-03-11T23:28:04.482Z,62.0
2023-03-11T23:30:02.961Z,58.0
2023-03-11T23:32:02.786Z,68.0
2023-03-11T23:34:02.927Z,71.0
2023-03-11T23:36:05.276Z,70.0
2023-03-11T23:38:02.683Z,69.0
2023-03-11T23:40:04.595Z,68.0
2023-03-11T23:42:14.926Z,68.0
2023-03-11T23:44:02.744Z,68.0
2023-03-11T23:46:04.302Z,69.0
2023-03-11T23:48:03.245Z,66.0
2023-03-11T23:50:04.089Z,71.0
2023-03-11T23:52:03.573Z,71.0
2023-03-11T23:54:03.260Z,68.0
2023-03-11T23:56:07.966Z,70.0
2023-03-11T23:58:02.893Z,71.0
